sensor_id;sensor_type;location;lat;lon;timestamp;pressure;altitude;pressure_sealevel;temperature;humidity
82746;BME280;72484;50.004;14.356;2024-01-27T00:01:10;99100.62;;;5.54;73.52
82746;BME280;72484;50.004;14.356;2024-01-27T00:04:48;99103.43;;;5.55;73.37
82746;BME280;72484;50.004;14.356;2024-01-27T00:08:08;99102.04;;;5.54;72.90
82746;BME280;72484;50.004;14.356;2024-01-27T00:12:24;99103.51;;;5.43;72.67
82746;BME280;72484;50.004;14.356;2024-01-27T00:15:44;99102.29;;;5.39;72.59
82746;BME280;72484;50.004;14.356;2024-01-27T00:19:59;99108.72;;;5.37;71.55
82746;BME280;72484;50.004;14.356;2024-01-27T00:23:20;99105.26;;;5.33;71.13
82746;BME280;72484;50.004;14.356;2024-01-27T00:27:18;99107.13;;;5.30;70.79
82746;BME280;72484;50.004;14.356;2024-01-27T00:31:33;99105.02;;;5.26;70.89
82746;BME280;72484;50.004;14.356;2024-01-27T00:35:11;99106.96;;;5.23;70.44
82746;BME280;72484;50.004;14.356;2024-01-27T00:38:48;99110.40;;;5.19;70.23
82746;BME280;72484;50.004;14.356;2024-01-27T00:42:09;99110.06;;;5.16;70.66
82746;BME280;72484;50.004;14.356;2024-01-27T00:46:24;99111.05;;;5.17;70.92
82746;BME280;72484;50.004;14.356;2024-01-27T00:49:45;99117.95;;;5.22;71.10
82746;BME280;72484;50.004;14.356;2024-01-27T00:53:43;99124.79;;;5.35;70.72
82746;BME280;72484;50.004;14.356;2024-01-27T00:57:58;99126.46;;;5.48;70.46
82746;BME280;72484;50.004;14.356;2024-01-27T01:01:19;99133.86;;;5.54;70.48
82746;BME280;72484;50.004;14.356;2024-01-27T01:05:17;99135.41;;;5.53;70.65
82746;BME280;72484;50.004;14.356;2024-01-27T01:09:15;99141.56;;;5.54;70.82
82746;BME280;72484;50.004;14.356;2024-01-27T01:13:14;99145.00;;;5.53;71.33
82746;BME280;72484;50.004;14.356;2024-01-27T01:17:29;99150.19;;;5.52;71.25
82746;BME280;72484;50.004;14.356;2024-01-27T01:20:49;99153.59;;;5.47;71.70
82746;BME280;72484;50.004;14.356;2024-01-27T01:25:06;99153.14;;;5.45;71.74
82746;BME280;72484;50.004;14.356;2024-01-27T01:28:25;99158.63;;;5.38;71.65
82746;BME280;72484;50.004;14.356;2024-01-27T01:32:42;99163.02;;;5.29;71.91
82746;BME280;72484;50.004;14.356;2024-01-27T01:36:02;99161.31;;;5.18;72.05
82746;BME280;72484;50.004;14.356;2024-01-27T01:40:18;99169.29;;;5.09;71.69
82746;BME280;72484;50.004;14.356;2024-01-27T01:43:55;99170.61;;;4.98;71.91
82746;BME280;72484;50.004;14.356;2024-01-27T01:47:33;99171.68;;;4.95;72.52
82746;BME280;72484;50.004;14.356;2024-01-27T01:50:54;99181.29;;;4.92;72.52
82746;BME280;72484;50.004;14.356;2024-01-27T01:54:53;99181.45;;;4.90;72.81
82746;BME280;72484;50.004;14.356;2024-01-27T01:59:08;99184.20;;;4.93;72.47
82746;BME280;72484;50.004;14.356;2024-01-27T02:02:46;99191.09;;;4.93;72.95
82746;BME280;72484;50.004;14.356;2024-01-27T02:06:24;99201.20;;;4.95;73.08
82746;BME280;72484;50.004;14.356;2024-01-27T02:09:44;99204.59;;;5.01;73.10
82746;BME280;72484;50.004;14.356;2024-01-27T02:13:59;99211.91;;;5.05;72.93
82746;BME280;72484;50.004;14.356;2024-01-27T02:17:19;99214.65;;;5.04;73.35
82746;BME280;72484;50.004;14.356;2024-01-27T02:21:35;99219.62;;;5.04;73.59
82746;BME280;72484;50.004;14.356;2024-01-27T02:24:55;99219.47;;;5.02;73.65
82746;BME280;72484;50.004;14.356;2024-01-27T02:29:10;99220.16;;;5.04;73.79
82746;BME280;72484;50.004;14.356;2024-01-27T02:32:48;99231.33;;;5.10;73.08
82746;BME280;72484;50.004;14.356;2024-01-27T02:36:09;99236.80;;;5.08;71.77
82746;BME280;72484;50.004;14.356;2024-01-27T02:40:24;99234.08;;;4.99;71.82
82746;BME280;72484;50.004;14.356;2024-01-27T02:44:02;99234.93;;;4.96;72.02
82746;BME280;72484;50.004;14.356;2024-01-27T02:47:40;99245.35;;;5.00;72.49
82746;BME280;72484;50.004;14.356;2024-01-27T02:51:03;99248.56;;;4.99;73.24
82746;BME280;72484;50.004;14.356;2024-01-27T02:55:19;99245.13;;;4.96;73.78
82746;BME280;72484;50.004;14.356;2024-01-27T02:58:39;99249.36;;;4.93;74.20
82746;BME280;72484;50.004;14.356;2024-01-27T03:02:56;99253.73;;;4.91;74.23
82746;BME280;72484;50.004;14.356;2024-01-27T03:06:33;99252.20;;;4.86;74.56
82746;BME280;72484;50.004;14.356;2024-01-27T03:10:11;99249.99;;;4.83;74.55
82746;BME280;72484;50.004;14.356;2024-01-27T03:13:49;99252.98;;;4.78;74.73
82746;BME280;72484;50.004;14.356;2024-01-27T03:17:09;99257.33;;;4.67;73.97
82746;BME280;72484;50.004;14.356;2024-01-27T03:21:08;99251.88;;;4.57;72.30
82746;BME280;72484;50.004;14.356;2024-01-27T03:25:24;99255.98;;;4.48;71.43
82746;BME280;72484;50.004;14.356;2024-01-27T03:28:44;99257.53;;;4.46;70.35
82746;BME280;72484;50.004;14.356;2024-01-27T03:32:43;99255.00;;;4.45;69.77
82746;BME280;72484;50.004;14.356;2024-01-27T03:36:59;99260.54;;;4.39;68.45
82746;BME280;72484;50.004;14.356;2024-01-27T03:40:36;99262.13;;;4.31;67.15
82746;BME280;72484;50.004;14.356;2024-01-27T03:44:14;99266.56;;;4.27;66.23
82746;BME280;72484;50.004;14.356;2024-01-27T03:47:34;99265.33;;;4.25;66.03
82746;BME280;72484;50.004;14.356;2024-01-27T03:51:50;99271.23;;;4.20;65.06
82746;BME280;72484;50.004;14.356;2024-01-27T03:55:27;99274.85;;;4.18;64.80
82746;BME280;72484;50.004;14.356;2024-01-27T03:58:48;99285.98;;;4.15;64.72
82746;BME280;72484;50.004;14.356;2024-01-27T04:02:46;99291.14;;;4.16;65.68
82746;BME280;72484;50.004;14.356;2024-01-27T04:07:03;99297.20;;;4.18;66.19
82746;BME280;72484;50.004;14.356;2024-01-27T04:10:40;99301.41;;;4.16;67.15
82746;BME280;72484;50.004;14.356;2024-01-27T04:14:00;99308.77;;;4.12;68.15
82746;BME280;72484;50.004;14.356;2024-01-27T04:17:59;99311.27;;;4.10;69.11
82746;BME280;72484;50.004;14.356;2024-01-27T04:22:14;99309.33;;;4.07;70.06
82746;BME280;72484;50.004;14.356;2024-01-27T04:25:36;99312.13;;;4.04;71.20
82746;BME280;72484;50.004;14.356;2024-01-27T04:29:35;99321.20;;;4.04;71.80
82746;BME280;72484;50.004;14.356;2024-01-27T04:33:34;99321.20;;;4.06;71.93
82746;BME280;72484;50.004;14.356;2024-01-27T04:37:32;99327.94;;;4.06;72.18
82746;BME280;72484;50.004;14.356;2024-01-27T04:41:30;99330.97;;;4.05;72.15
82746;BME280;72484;50.004;14.356;2024-01-27T04:45:46;99332.63;;;4.05;72.23
82746;BME280;72484;50.004;14.356;2024-01-27T04:49:06;99322.90;;;4.07;72.03
82746;BME280;72484;50.004;14.356;2024-01-27T04:53:21;99322.07;;;4.08;71.71
82746;BME280;72484;50.004;14.356;2024-01-27T04:56:42;99324.17;;;3.99;71.83
82746;BME280;72484;50.004;14.356;2024-01-27T05:00:57;99333.39;;;3.93;72.44
82746;BME280;72484;50.004;14.356;2024-01-27T05:04:35;99331.19;;;3.86;73.06
82746;BME280;72484;50.004;14.356;2024-01-27T05:07:55;99328.89;;;3.80;73.63
82746;BME280;72484;50.004;14.356;2024-01-27T05:11:53;99325.23;;;3.75;74.39
82746;BME280;72484;50.004;14.356;2024-01-27T05:16:09;99318.59;;;3.70;75.14
82746;BME280;72484;50.004;14.356;2024-01-27T05:19:47;99316.84;;;3.67;75.40
82746;BME280;72484;50.004;14.356;2024-01-27T05:23:07;99312.88;;;3.66;75.47
82746;BME280;72484;50.004;14.356;2024-01-27T05:27:06;99317.54;;;3.62;75.46
82746;BME280;72484;50.004;14.356;2024-01-27T05:31:04;99323.89;;;3.62;75.13
82746;BME280;72484;50.004;14.356;2024-01-27T05:35:21;99331.22;;;3.63;74.59
82746;BME280;72484;50.004;14.356;2024-01-27T05:38:42;99333.72;;;3.62;74.45
82746;BME280;72484;50.004;14.356;2024-01-27T05:42:57;99343.54;;;3.63;73.83
82746;BME280;72484;50.004;14.356;2024-01-27T05:46:17;99350.88;;;3.63;73.79
82746;BME280;72484;50.004;14.356;2024-01-27T05:50:16;99354.23;;;3.63;73.29
82746;BME280;72484;50.004;14.356;2024-01-27T05:54:14;99355.10;;;3.65;72.47
82746;BME280;72484;50.004;14.356;2024-01-27T05:58:13;99358.45;;;3.64;72.60
82746;BME280;72484;50.004;14.356;2024-01-27T06:02:29;99358.80;;;3.62;71.95
82746;BME280;72484;50.004;14.356;2024-01-27T06:06:07;99353.26;;;3.61;72.02
82746;BME280;72484;50.004;14.356;2024-01-27T06:09:45;99355.95;;;3.58;71.49
82746;BME280;72484;50.004;14.356;2024-01-27T06:13:23;99362.83;;;3.54;71.17
82746;BME280;72484;50.004;14.356;2024-01-27T06:16:43;99360.91;;;3.54;71.13
82746;BME280;72484;50.004;14.356;2024-01-27T06:20:58;99373.81;;;3.55;70.99
82746;BME280;72484;50.004;14.356;2024-01-27T06:24:19;99386.88;;;3.59;70.78
82746;BME280;72484;50.004;14.356;2024-01-27T06:28:34;99394.44;;;3.64;70.85
82746;BME280;72484;50.004;14.356;2024-01-27T06:31:55;99398.16;;;3.63;70.34
82746;BME280;72484;50.004;14.356;2024-01-27T06:35:54;99409.33;;;3.60;70.24
82746;BME280;72484;50.004;14.356;2024-01-27T06:40:11;99417.00;;;3.62;70.25
82746;BME280;72484;50.004;14.356;2024-01-27T06:43:47;99421.66;;;3.62;69.91
82746;BME280;72484;50.004;14.356;2024-01-27T06:47:08;99423.52;;;3.63;70.08
82746;BME280;72484;50.004;14.356;2024-01-27T06:51:06;99432.04;;;3.66;70.00
82746;BME280;72484;50.004;14.356;2024-01-27T06:55:21;99434.66;;;3.64;70.12
82746;BME280;72484;50.004;14.356;2024-01-27T06:58:42;99444.75;;;3.61;70.09
82746;BME280;72484;50.004;14.356;2024-01-27T07:02:41;99447.42;;;3.61;70.18
82746;BME280;72484;50.004;14.356;2024-01-27T07:06:39;99447.70;;;3.59;70.13
82746;BME280;72484;50.004;14.356;2024-01-27T07:10:37;99444.98;;;3.61;70.50
82746;BME280;72484;50.004;14.356;2024-01-27T07:14:52;99443.05;;;3.64;70.80
82746;BME280;72484;50.004;14.356;2024-01-27T07:18:30;99451.52;;;3.64;70.84
82746;BME280;72484;50.004;14.356;2024-01-27T07:21:51;99451.66;;;3.63;70.60
82746;BME280;72484;50.004;14.356;2024-01-27T07:25:49;99455.98;;;3.59;70.65
82746;BME280;72484;50.004;14.356;2024-01-27T07:29:47;99456.04;;;3.56;71.26
82746;BME280;72484;50.004;14.356;2024-01-27T07:34:02;99458.21;;;3.59;71.14
82746;BME280;72484;50.004;14.356;2024-01-27T07:37:40;99464.67;;;3.60;71.11
82746;BME280;72484;50.004;14.356;2024-01-27T07:41:01;99465.52;;;3.61;71.09
82746;BME280;72484;50.004;14.356;2024-01-27T07:45:16;99472.13;;;3.64;71.17
82746;BME280;72484;50.004;14.356;2024-01-27T07:48:53;99482.73;;;3.71;71.11
82746;BME280;72484;50.004;14.356;2024-01-27T07:52:14;99491.45;;;3.71;71.20
82746;BME280;72484;50.004;14.356;2024-01-27T07:56:13;99488.39;;;3.79;70.90
82746;BME280;72484;50.004;14.356;2024-01-27T08:00:13;99500.80;;;3.84;70.56
82746;BME280;72484;50.004;14.356;2024-01-27T08:04:28;99505.79;;;3.86;70.67
82746;BME280;72484;50.004;14.356;2024-01-27T08:07:49;99503.83;;;3.88;70.46
82746;BME280;72484;50.004;14.356;2024-01-27T08:12:06;99510.59;;;3.91;70.43
82746;BME280;72484;50.004;14.356;2024-01-27T08:15:25;99508.05;;;3.89;70.57
82746;BME280;72484;50.004;14.356;2024-01-27T08:19:40;99514.35;;;3.96;70.41
82746;BME280;72484;50.004;14.356;2024-01-27T08:23:01;99525.05;;;4.03;69.88
82746;BME280;72484;50.004;14.356;2024-01-27T08:27:00;99523.08;;;4.14;69.85
82746;BME280;72484;50.004;14.356;2024-01-27T08:30:58;99527.30;;;4.22;69.31
82746;BME280;72484;50.004;14.356;2024-01-27T08:34:58;99526.39;;;4.30;69.11
82746;BME280;72484;50.004;14.356;2024-01-27T08:39:13;99525.55;;;4.36;68.69
82746;BME280;72484;50.004;14.356;2024-01-27T08:42:51;99527.27;;;4.38;68.13
82746;BME280;72484;50.004;14.356;2024-01-27T08:46:29;99530.15;;;4.42;68.22
82746;BME280;72484;50.004;14.356;2024-01-27T08:49:49;99537.94;;;4.47;67.90
82746;BME280;72484;50.004;14.356;2024-01-27T08:54:05;99542.60;;;4.50;67.88
82746;BME280;72484;50.004;14.356;2024-01-27T08:57:44;99532.96;;;4.58;68.30
82746;BME280;72484;50.004;14.356;2024-01-27T09:01:03;99535.65;;;4.64;68.17
82746;BME280;72484;50.004;14.356;2024-01-27T09:05:21;99523.42;;;4.68;68.47
82746;BME280;72484;50.004;14.356;2024-01-27T09:08:59;99527.58;;;4.71;67.94
82746;BME280;72484;50.004;14.356;2024-01-27T09:12:20;99534.89;;;4.75;67.41
82746;BME280;72484;50.004;14.356;2024-01-27T09:16:19;99546.86;;;4.78;67.20
82746;BME280;72484;50.004;14.356;2024-01-27T09:20:17;99545.08;;;4.83;67.87
82746;BME280;72484;50.004;14.356;2024-01-27T09:24:16;99561.45;;;4.94;67.13
82746;BME280;72484;50.004;14.356;2024-01-27T09:28:32;99561.41;;;5.02;66.90
82746;BME280;72484;50.004;14.356;2024-01-27T09:31:52;99557.00;;;5.05;66.63
82746;BME280;72484;50.004;14.356;2024-01-27T09:36:07;99560.27;;;5.10;66.39
82746;BME280;72484;50.004;14.356;2024-01-27T09:39:45;99562.77;;;5.18;66.06
82746;BME280;72484;50.004;14.356;2024-01-27T09:43:25;99573.39;;;5.26;65.54
82746;BME280;72484;50.004;14.356;2024-01-27T09:46:43;99578.27;;;5.32;66.00
82746;BME280;72484;50.004;14.356;2024-01-27T09:51:02;99586.33;;;5.37;65.31
82746;BME280;72484;50.004;14.356;2024-01-27T09:54:41;99597.76;;;5.40;66.16
82746;BME280;72484;50.004;14.356;2024-01-27T09:58:17;99601.91;;;5.49;65.75
82746;BME280;72484;50.004;14.356;2024-01-27T10:01:38;99606.95;;;5.44;62.56
82746;BME280;72484;50.004;14.356;2024-01-27T10:05:55;99601.54;;;5.45;63.58
82746;BME280;72484;50.004;14.356;2024-01-27T10:09:14;99611.41;;;5.50;62.64
82746;BME280;72484;50.004;14.356;2024-01-27T10:13:29;99609.30;;;5.57;61.74
82746;BME280;72484;50.004;14.356;2024-01-27T10:16:50;99599.61;;;5.62;61.84
82746;BME280;72484;50.004;14.356;2024-01-27T10:20:48;99602.39;;;5.71;62.45
82746;BME280;72484;50.004;14.356;2024-01-27T10:25:05;99598.84;;;5.76;62.52
82746;BME280;72484;50.004;14.356;2024-01-27T10:28:42;99597.89;;;5.78;61.09
82746;BME280;72484;50.004;14.356;2024-01-27T10:32:10;99591.73;;;5.81;62.68
82746;BME280;72484;50.004;14.356;2024-01-27T10:36:25;99590.23;;;5.90;63.08
82746;BME280;72484;50.004;14.356;2024-01-27T10:39:46;99600.95;;;6.00;62.02
82746;BME280;72484;50.004;14.356;2024-01-27T10:44:02;99593.99;;;6.11;62.44
82746;BME280;72484;50.004;14.356;2024-01-27T10:47:23;99582.98;;;6.21;62.00
82746;BME280;72484;50.004;14.356;2024-01-27T10:51:43;99586.20;;;6.20;61.72
82746;BME280;72484;50.004;14.356;2024-01-27T10:55:17;99595.04;;;6.19;60.50
82746;BME280;72484;50.004;14.356;2024-01-27T10:58:38;99590.59;;;6.23;60.70
82746;BME280;72484;50.004;14.356;2024-01-27T11:02:38;99586.67;;;6.27;60.85
82746;BME280;72484;50.004;14.356;2024-01-27T11:06:37;99588.99;;;6.21;60.17
82746;BME280;72484;50.004;14.356;2024-01-27T11:10:36;99571.94;;;6.16;60.69
82746;BME280;72484;50.004;14.356;2024-01-27T11:14:52;99566.91;;;6.20;61.02
82746;BME280;72484;50.004;14.356;2024-01-27T11:18:12;99578.24;;;6.22;61.15
82746;BME280;72484;50.004;14.356;2024-01-27T11:22:31;99577.66;;;6.25;61.66
82746;BME280;72484;50.004;14.356;2024-01-27T11:26:09;99576.95;;;6.30;60.83
82746;BME280;72484;50.004;14.356;2024-01-27T11:29:48;99570.02;;;6.39;61.68
82746;BME280;72484;50.004;14.356;2024-01-27T11:33:07;99574.94;;;6.49;61.40
82746;BME280;72484;50.004;14.356;2024-01-27T11:37:14;99574.04;;;6.52;60.63
82746;BME280;72484;50.004;14.356;2024-01-27T11:41:30;99567.54;;;6.48;60.47
82746;BME280;72484;50.004;14.356;2024-01-27T11:44:50;99571.85;;;6.42;60.04
82746;BME280;72484;50.004;14.356;2024-01-27T11:48:49;99560.32;;;6.48;60.32
82746;BME280;72484;50.004;14.356;2024-01-27T11:52:48;99565.72;;;6.52;59.60
82746;BME280;72484;50.004;14.356;2024-01-27T11:56:47;99563.52;;;6.55;59.90
82746;BME280;72484;50.004;14.356;2024-01-27T12:01:03;99561.90;;;6.63;60.08
82746;BME280;72484;50.004;14.356;2024-01-27T12:04:23;99552.30;;;6.68;59.64
82746;BME280;72484;50.004;14.356;2024-01-27T12:08:22;99559.75;;;6.70;59.52
82746;BME280;72484;50.004;14.356;2024-01-27T12:12:20;99561.44;;;6.75;58.62
82746;BME280;72484;50.004;14.356;2024-01-27T12:16:19;99556.19;;;6.74;58.48
82746;BME280;72484;50.004;14.356;2024-01-27T12:20:35;99554.52;;;6.81;58.51
82746;BME280;72484;50.004;14.356;2024-01-27T12:24:16;99556.69;;;6.87;58.52
82746;BME280;72484;50.004;14.356;2024-01-27T12:27:50;99564.10;;;6.90;59.32
82746;BME280;72484;50.004;14.356;2024-01-27T12:31:28;99556.84;;;6.94;58.81
82746;BME280;72484;50.004;14.356;2024-01-27T12:34:48;99553.25;;;6.88;57.93
82746;BME280;72484;50.004;14.356;2024-01-27T12:39:04;99560.42;;;6.80;58.57
82746;BME280;72484;50.004;14.356;2024-01-27T12:42:25;99562.86;;;6.77;59.27
82746;BME280;72484;50.004;14.356;2024-01-27T12:46:24;99567.31;;;6.77;58.96
82746;BME280;72484;50.004;14.356;2024-01-27T12:50:23;99565.79;;;6.88;59.18
82746;BME280;72484;50.004;14.356;2024-01-27T12:54:39;99574.40;;;6.99;59.28
82746;BME280;72484;50.004;14.356;2024-01-27T12:58:16;99564.10;;;7.09;59.92
82746;BME280;72484;50.004;14.356;2024-01-27T13:01:37;99569.94;;;7.15;57.46
82746;BME280;72484;50.004;14.356;2024-01-27T13:05:36;99573.99;;;7.15;57.46
82746;BME280;72484;50.004;14.356;2024-01-27T13:09:52;99565.24;;;7.12;57.55
82746;BME280;72484;50.004;14.356;2024-01-27T13:13:30;99569.73;;;7.09;57.86
82746;BME280;72484;50.004;14.356;2024-01-27T13:16:50;99569.40;;;7.13;56.98
82746;BME280;72484;50.004;14.356;2024-01-27T13:20:50;99569.39;;;7.20;57.75
82746;BME280;72484;50.004;14.356;2024-01-27T13:24:48;99571.95;;;7.25;56.78
82746;BME280;72484;50.004;14.356;2024-01-27T13:29:04;99578.19;;;7.29;56.40
82746;BME280;72484;50.004;14.356;2024-01-27T13:32:25;99580.46;;;7.33;56.53
82746;BME280;72484;50.004;14.356;2024-01-27T13:36:40;99592.11;;;7.37;55.36
82746;BME280;72484;50.004;14.356;2024-01-27T13:40:01;99585.39;;;7.38;56.33
82746;BME280;72484;50.004;14.356;2024-01-27T13:44:17;99593.33;;;7.38;55.62
82746;BME280;72484;50.004;14.356;2024-01-27T13:47:38;99596.11;;;7.43;56.93
82746;BME280;72484;50.004;14.356;2024-01-27T13:51:36;99598.29;;;7.46;56.42
82746;BME280;72484;50.004;14.356;2024-01-27T13:55:36;99600.27;;;7.47;56.58
82746;BME280;72484;50.004;14.356;2024-01-27T13:59:53;99599.29;;;7.45;55.94
82746;BME280;72484;50.004;14.356;2024-01-27T14:03:30;99603.41;;;7.50;56.40
82746;BME280;72484;50.004;14.356;2024-01-27T14:06:51;99609.09;;;7.49;55.30
82746;BME280;72484;50.004;14.356;2024-01-27T14:10:50;99610.41;;;7.50;56.11
82746;BME280;72484;50.004;14.356;2024-01-27T14:15:09;99611.10;;;7.52;56.38
82746;BME280;72484;50.004;14.356;2024-01-27T14:18:45;99609.30;;;7.53;56.09
82746;BME280;72484;50.004;14.356;2024-01-27T14:22:22;99617.77;;;7.50;55.66
82746;BME280;72484;50.004;14.356;2024-01-27T14:25:43;99615.99;;;7.46;55.84
82746;BME280;72484;50.004;14.356;2024-01-27T14:29:58;99618.46;;;7.44;55.42
82746;BME280;72484;50.004;14.356;2024-01-27T14:33:36;99616.13;;;7.41;55.94
82746;BME280;72484;50.004;14.356;2024-01-27T14:36:57;99612.73;;;7.36;55.58
82746;BME280;72484;50.004;14.356;2024-01-27T14:41:13;99604.17;;;7.29;56.01
82746;BME280;72484;50.004;14.356;2024-01-27T14:44:51;99604.93;;;7.26;55.86
82746;BME280;72484;50.004;14.356;2024-01-27T14:48:28;99608.58;;;7.23;55.80
82746;BME280;72484;50.004;14.356;2024-01-27T14:52:06;99600.47;;;7.14;55.64
82746;BME280;72484;50.004;14.356;2024-01-27T14:55:27;99597.22;;;7.10;55.75
82746;BME280;72484;50.004;14.356;2024-01-27T14:59:27;99600.68;;;7.04;54.82
82746;BME280;72484;50.004;14.356;2024-01-27T15:03:43;99596.48;;;7.02;55.77
82746;BME280;72484;50.004;14.356;2024-01-27T15:07:20;99597.52;;;6.95;56.02
82746;BME280;72484;50.004;14.356;2024-01-27T15:10:41;99598.55;;;6.93;56.07
82746;BME280;72484;50.004;14.356;2024-01-27T15:14:57;99603.19;;;6.87;56.18
82746;BME280;72484;50.004;14.356;2024-01-27T15:18:35;99604.09;;;6.85;56.71
82746;BME280;72484;50.004;14.356;2024-01-27T15:21:55;99606.95;;;6.80;56.58
82746;BME280;72484;50.004;14.356;2024-01-27T15:26:11;99605.33;;;6.80;57.30
82746;BME280;72484;50.004;14.356;2024-01-27T15:29:48;99619.81;;;6.74;57.45
82746;BME280;72484;50.004;14.356;2024-01-27T15:33:08;99629.45;;;6.71;58.03
82746;BME280;72484;50.004;14.356;2024-01-27T15:37:06;99638.16;;;6.66;58.58
82746;BME280;72484;50.004;14.356;2024-01-27T15:41:05;99644.30;;;6.60;59.23
82746;BME280;72484;50.004;14.356;2024-01-27T15:45:21;99647.18;;;6.53;59.21
82746;BME280;72484;50.004;14.356;2024-01-27T15:48:59;99657.50;;;6.45;58.79
82746;BME280;72484;50.004;14.356;2024-01-27T15:52:37;99662.96;;;6.36;58.65
82746;BME280;72484;50.004;14.356;2024-01-27T15:56:14;99671.23;;;6.24;59.16
82746;BME280;72484;50.004;14.356;2024-01-27T15:59:35;99668.96;;;6.11;59.50
82746;BME280;72484;50.004;14.356;2024-01-27T16:03:50;99670.82;;;5.97;59.25
82746;BME280;72484;50.004;14.356;2024-01-27T16:07:28;99672.82;;;5.86;59.53
82746;BME280;72484;50.004;14.356;2024-01-27T16:10:49;99673.69;;;5.77;59.53
82746;BME280;72484;50.004;14.356;2024-01-27T16:15:08;99677.50;;;5.73;59.65
82746;BME280;72484;50.004;14.356;2024-01-27T16:18:26;99677.40;;;5.67;59.38
82746;BME280;72484;50.004;14.356;2024-01-27T16:22:25;99677.97;;;5.63;59.38
82746;BME280;72484;50.004;14.356;2024-01-27T16:26:23;99692.88;;;5.62;59.12
82746;BME280;72484;50.004;14.356;2024-01-27T16:30:21;99704.73;;;5.61;59.22
82746;BME280;72484;50.004;14.356;2024-01-27T16:34:36;99709.13;;;5.60;58.98
82746;BME280;72484;50.004;14.356;2024-01-27T16:38:14;99713.52;;;5.60;59.59
82746;BME280;72484;50.004;14.356;2024-01-27T16:41:35;99719.20;;;5.59;59.64
82746;BME280;72484;50.004;14.356;2024-01-27T16:45:50;99726.99;;;5.58;59.81
82746;BME280;72484;50.004;14.356;2024-01-27T16:49:28;99728.18;;;5.59;60.25
82746;BME280;72484;50.004;14.356;2024-01-27T16:53:05;99733.77;;;5.66;60.27
82746;BME280;72484;50.004;14.356;2024-01-27T16:56:43;99738.35;;;5.67;60.25
82746;BME280;72484;50.004;14.356;2024-01-27T17:00:21;99746.67;;;5.66;60.11
82746;BME280;72484;50.004;14.356;2024-01-27T17:03:59;99747.23;;;5.67;60.46
82746;BME280;72484;50.004;14.356;2024-01-27T17:07:36;99749.16;;;5.66;60.74
82746;BME280;72484;50.004;14.356;2024-01-27T17:11:14;99750.63;;;5.71;61.12
82746;BME280;72484;50.004;14.356;2024-01-27T17:14:52;99756.02;;;5.72;61.52
82746;BME280;72484;50.004;14.356;2024-01-27T17:18:13;99755.63;;;5.70;61.74
82746;BME280;72484;50.004;14.356;2024-01-27T17:22:30;99752.83;;;5.60;62.10
82746;BME280;72484;50.004;14.356;2024-01-27T17:26:07;99750.09;;;5.49;62.63
82746;BME280;72484;50.004;14.356;2024-01-27T17:29:45;99751.98;;;5.40;63.09
82746;BME280;72484;50.004;14.356;2024-01-27T17:33:06;99750.91;;;5.28;63.42
82746;BME280;72484;50.004;14.356;2024-01-27T17:37:25;99751.35;;;5.18;63.81
82746;BME280;72484;50.004;14.356;2024-01-27T17:40:42;99763.87;;;5.15;64.27
82746;BME280;72484;50.004;14.356;2024-01-27T17:44:40;99773.48;;;5.19;64.23
82746;BME280;72484;50.004;14.356;2024-01-27T17:48:38;99779.41;;;5.30;64.23
82746;BME280;72484;50.004;14.356;2024-01-27T17:52:54;99783.57;;;5.41;63.89
82746;BME280;72484;50.004;14.356;2024-01-27T17:56:31;99789.63;;;5.39;63.51
82746;BME280;72484;50.004;14.356;2024-01-27T18:00:14;99794.96;;;5.31;63.65
82746;BME280;72484;50.004;14.356;2024-01-27T18:03:30;99803.23;;;5.14;63.93
82746;BME280;72484;50.004;14.356;2024-01-27T18:07:28;99800.27;;;5.04;64.62
82746;BME280;72484;50.004;14.356;2024-01-27T18:11:26;99804.02;;;4.95;64.90
82746;BME280;72484;50.004;14.356;2024-01-27T18:15:42;99800.45;;;4.84;65.55
82746;BME280;72484;50.004;14.356;2024-01-27T18:19:19;99802.58;;;4.81;65.68
82746;BME280;72484;50.004;14.356;2024-01-27T18:22:57;99810.90;;;4.76;66.08
82746;BME280;72484;50.004;14.356;2024-01-27T18:26:35;99807.80;;;4.77;66.22
82746;BME280;72484;50.004;14.356;2024-01-27T18:30:13;99811.77;;;4.79;66.25
82746;BME280;72484;50.004;14.356;2024-01-27T18:33:51;99816.20;;;4.86;66.04
82746;BME280;72484;50.004;14.356;2024-01-27T18:37:28;99813.48;;;4.95;66.00
82746;BME280;72484;50.004;14.356;2024-01-27T18:40:49;99820.80;;;4.95;65.61
82746;BME280;72484;50.004;14.356;2024-01-27T18:45:07;99826.14;;;4.95;65.65
82746;BME280;72484;50.004;14.356;2024-01-27T18:48:42;99831.23;;;4.82;65.86
82746;BME280;72484;50.004;14.356;2024-01-27T18:52:20;99832.09;;;4.72;66.18
82746;BME280;72484;50.004;14.356;2024-01-27T18:55:58;99839.73;;;4.60;66.50
82746;BME280;72484;50.004;14.356;2024-01-27T18:59:35;99838.48;;;4.53;67.03
82746;BME280;72484;50.004;14.356;2024-01-27T19:03:13;99838.37;;;4.48;67.25
82746;BME280;72484;50.004;14.356;2024-01-27T19:06:34;99845.88;;;4.45;67.47
82746;BME280;72484;50.004;14.356;2024-01-27T19:10:50;99851.45;;;4.45;67.43
82746;BME280;72484;50.004;14.356;2024-01-27T19:14:27;99857.41;;;4.48;67.40
82746;BME280;72484;50.004;14.356;2024-01-27T19:18:06;99863.42;;;4.59;67.19
82746;BME280;72484;50.004;14.356;2024-01-27T19:21:43;99869.91;;;4.63;67.07
82746;BME280;72484;50.004;14.356;2024-01-27T19:25:04;99877.41;;;4.54;66.76
82746;BME280;72484;50.004;14.356;2024-01-27T19:29:20;99881.88;;;4.36;67.49
82746;BME280;72484;50.004;14.356;2024-01-27T19:32:57;99875.98;;;4.14;68.02
82746;BME280;72484;50.004;14.356;2024-01-27T19:36:35;99877.06;;;4.01;69.00
82746;BME280;72484;50.004;14.356;2024-01-27T19:40:14;99868.81;;;3.97;69.27
82746;BME280;72484;50.004;14.356;2024-01-27T19:43:54;99862.33;;;4.01;68.97
82746;BME280;72484;50.004;14.356;2024-01-27T19:47:11;99874.45;;;3.99;69.25
82746;BME280;72484;50.004;14.356;2024-01-27T19:51:27;99882.14;;;3.99;69.07
82746;BME280;72484;50.004;14.356;2024-01-27T19:55:06;99897.50;;;4.08;69.12
82746;BME280;72484;50.004;14.356;2024-01-27T19:58:42;99899.58;;;4.19;69.08
82746;BME280;72484;50.004;14.356;2024-01-27T20:02:03;99888.94;;;4.22;68.45